Time;durP1;ratioP1;P1;durP2;ratioP2;P2;SDS_P1;SDS_P2;PMS_P1;PMS_P2;Temp;Humidity;BMP_temperature;BMP_pressure;BME280_temperature;BME280_humidity;BME280_pressure;Samples;Min_cycle;Max_cycle;Signal;HPM_P1;HPM_P2
2021/08/16 00:01:44;;;;;;;0.00;0.00;;;21.50;99.90;;;;;;5051610;28;20032;-75
2021/08/16 00:04:10;;;;;;;1.52;1.42;;;21.60;99.90;;;;;;5051417;28;20388;-75
2021/08/16 00:06:35;;;;;;;0.10;0.10;;;21.30;99.90;;;;;;5051550;28;20036;-75
2021/08/16 00:09:01;;;;;;;0.10;0.10;;;21.30;99.90;;;;;;5051566;28;20071;-75
2021/08/16 00:11:28;;;;;;;0.43;0.43;;;21.20;99.90;;;;;;5051511;28;20455;-74
2021/08/16 00:13:53;;;;;;;0.05;0.05;;;21.20;99.90;;;;;;5033578;28;20112;-74
2021/08/16 00:16:19;;;;;;;0.10;0.10;;;21.30;99.90;;;;;;5051426;28;20063;-75
2021/08/16 00:18:47;;;;;;;0.93;0.38;;;21.10;99.90;;;;;;5051318;28;20432;-74
2021/08/16 00:21:14;;;;;;;0.10;0.10;;;20.90;99.90;;;;;;5051443;28;20484;-74
2021/08/16 00:23:40;;;;;;;5.18;1.33;;;20.80;99.90;;;;;;5033349;28;20029;-74
2021/08/16 00:26:06;;;;;;;0.50;0.50;;;20.70;99.90;;;;;;5051353;28;20477;-75
2021/08/16 00:28:32;;;;;;;0.20;0.20;;;20.70;99.90;;;;;;5051314;28;20106;-75
2021/08/16 00:30:57;;;;;;;0.10;0.10;;;20.80;99.90;;;;;;5016986;28;20032;-75
2021/08/16 00:33:23;;;;;;;0.10;0.10;;;20.80;99.90;;;;;;5051301;28;20029;-75
2021/08/16 00:35:49;;;;;;;0.10;0.10;;;20.80;99.90;;;;;;5051176;28;20028;-74
2021/08/16 00:38:15;;;;;;;0.10;0.10;;;20.80;99.90;;;;;;5016819;28;20021;-74
2021/08/16 00:40:41;;;;;;;0.70;0.63;;;20.80;99.90;;;;;;5051273;28;20028;-74
2021/08/16 00:43:07;;;;;;;0.80;0.28;;;20.60;99.90;;;;;;5052324;28;20029;-74
2021/08/16 00:45:33;;;;;;;5.40;2.00;;;20.50;99.90;;;;;;5054761;28;20094;-75
2021/08/16 00:47:59;;;;;;;1.27;0.95;;;20.50;99.90;;;;;;5036785;28;20473;-74
2021/08/16 00:50:25;;;;;;;0.13;0.13;;;20.40;99.90;;;;;;5054874;28;20029;-74
2021/08/16 00:52:51;;;;;;;0.90;0.77;;;20.30;99.90;;;;;;5054827;28;20465;-75
2021/08/16 00:55:17;;;;;;;17.08;1.05;;;20.30;99.90;;;;;;5054637;28;20331;-75
2021/08/16 00:57:43;;;;;;;0.30;0.30;;;20.00;99.90;;;;;;5020222;28;20484;-74
2021/08/16 01:00:10;;;;;;;0.10;0.10;;;20.00;99.90;;;;;;5036788;28;20040;-74
2021/08/16 01:02:41;;;;;;;0.40;0.40;;;20.20;99.90;;;;;;5054780;28;20048;-74
2021/08/16 01:05:10;;;;;;;0.20;0.20;;;20.20;99.90;;;;;;5054455;28;20063;-74
2021/08/16 01:07:36;;;;;;;0.20;0.20;;;20.40;99.90;;;;;;5054333;28;20025;-74
2021/08/16 01:10:04;;;;;;;0.30;0.30;;;20.40;99.90;;;;;;5054745;28;20024;-75
2021/08/16 01:12:34;;;;;;;0.10;0.10;;;20.50;99.90;;;;;;5020100;28;20021;-74
2021/08/16 01:15:03;;;;;;;0.10;0.10;;;20.50;99.90;;;;;;5054281;28;20020;-74
2021/08/16 01:17:30;;;;;;;0.10;0.10;;;20.60;99.90;;;;;;5036614;28;20044;-75
2021/08/16 01:19:56;;;;;;;0.30;0.30;;;20.60;99.90;;;;;;5054047;28;20021;-74
2021/08/16 01:22:22;;;;;;;0.20;0.20;;;20.60;99.90;;;;;;5036617;28;20356;-74
2021/08/16 01:24:48;;;;;;;0.10;0.10;;;20.50;99.90;;;;;;5054229;28;20025;-74
2021/08/16 01:27:14;;;;;;;0.70;0.70;;;20.50;99.90;;;;;;5036243;28;20032;-75
2021/08/16 01:29:40;;;;;;;0.20;0.20;;;20.50;99.90;;;;;;5035983;28;20032;-74
2021/08/16 01:32:07;;;;;;;0.63;0.63;;;20.50;99.90;;;;;;5054148;28;20021;-74
2021/08/16 01:34:33;;;;;;;0.30;0.30;;;20.40;99.90;;;;;;5036089;28;20378;-74
2021/08/16 01:36:59;;;;;;;0.10;0.10;;;20.10;99.90;;;;;;5053984;28;20027;-74
2021/08/16 01:39:26;;;;;;;0.60;0.57;;;20.10;99.90;;;;;;5053821;28;20025;-75
2021/08/16 01:41:52;;;;;;;0.75;0.75;;;20.20;99.90;;;;;;5053887;28;20036;-75
2021/08/16 01:44:20;;;;;;;0.10;0.10;;;20.10;99.90;;;;;;5053535;28;20040;-74
2021/08/16 01:46:46;;;;;;;0.10;0.10;;;20.10;99.90;;;;;;5053885;28;20017;-74
2021/08/16 01:49:12;;;;;;;0.10;0.10;;;20.20;99.90;;;;;;5053576;28;20036;-74
2021/08/16 01:51:39;;;;;;;3.92;1.27;;;20.20;99.90;;;;;;5036014;28;20521;-74
2021/08/16 01:54:06;;;;;;;4.25;1.33;;;20.20;99.90;;;;;;5035808;28;20070;-75
2021/08/16 01:56:32;;;;;;;5.57;0.75;;;20.10;99.90;;;;;;5053108;28;20033;-74
2021/08/16 01:58:58;;;;;;;3.13;1.63;;;20.00;99.90;;;;;;5053355;28;20031;-74
2021/08/16 02:01:24;;;;;;;4.63;1.23;;;19.90;99.90;;;;;;5053628;28;20028;-74
2021/08/16 02:03:50;;;;;;;0.22;0.22;;;19.90;99.90;;;;;;5035542;28;20412;-74
2021/08/16 02:06:16;;;;;;;0.43;0.43;;;19.90;99.90;;;;;;5018952;28;20025;-75
2021/08/16 02:08:41;;;;;;;0.20;0.20;;;20.00;99.90;;;;;;5053299;28;20477;-74
2021/08/16 02:11:08;;;;;;;0.10;0.10;;;20.10;99.90;;;;;;5035391;28;20021;-74
2021/08/16 02:13:34;;;;;;;0.00;0.00;;;20.20;99.90;;;;;;5053228;28;20033;-75
2021/08/16 02:16:01;;;;;;;0.10;0.10;;;20.20;99.90;;;;;;5035122;28;20025;-74
2021/08/16 02:18:27;;;;;;;0.20;0.20;;;20.20;99.90;;;;;;5053100;28;20504;-74
2021/08/16 02:20:52;;;;;;;1.40;1.30;;;20.20;99.90;;;;;;5053276;28;20032;-75
2021/08/16 02:23:18;;;;;;;0.13;0.13;;;20.30;99.90;;;;;;5035332;28;20385;-75
2021/08/16 02:25:44;;;;;;;0.30;0.30;;;20.40;99.90;;;;;;5035031;28;20119;-74
2021/08/16 02:28:10;;;;;;;0.40;0.40;;;20.30;99.90;;;;;;5052808;28;20021;-74
2021/08/16 02:30:35;;;;;;;0.20;0.20;;;20.30;99.90;;;;;;5035337;28;20040;-74
2021/08/16 02:33:01;;;;;;;0.52;0.52;;;20.10;99.90;;;;;;5034962;28;20032;-74
2021/08/16 02:35:27;;;;;;;0.10;0.10;;;20.10;99.90;;;;;;5018472;28;20037;-74
2021/08/16 02:37:53;;;;;;;0.10;0.10;;;20.10;99.90;;;;;;5034962;28;20029;-75
2021/08/16 02:40:19;;;;;;;0.30;0.30;;;20.10;99.90;;;;;;5018369;28;20037;-73
2021/08/16 02:42:45;;;;;;;0.10;0.10;;;20.10;99.90;;;;;;5052543;28;20104;-75
2021/08/16 02:45:11;;;;;;;0.00;0.00;;;20.30;99.90;;;;;;5018123;28;20041;-75
2021/08/16 02:47:38;;;;;;;3.83;0.52;;;20.40;99.90;;;;;;5034777;28;20020;-74
2021/08/16 02:50:05;;;;;;;0.10;0.10;;;20.20;99.90;;;;;;5034707;28;20013;-74
2021/08/16 02:52:31;;;;;;;0.10;0.10;;;20.10;99.90;;;;;;5018239;28;20052;-74
2021/08/16 02:54:58;;;;;;;0.10;0.10;;;20.10;99.90;;;;;;5052460;28;20040;-75
2021/08/16 02:57:24;;;;;;;0.85;0.65;;;19.90;99.90;;;;;;5052368;28;20110;-74
2021/08/16 02:59:50;;;;;;;0.20;0.20;;;19.70;99.90;;;;;;5052252;28;20051;-74
2021/08/16 03:02:15;;;;;;;0.10;0.10;;;19.60;99.90;;;;;;5034687;28;20032;-74
2021/08/16 03:04:41;;;;;;;0.10;0.10;;;19.70;99.90;;;;;;5034385;28;20029;-75
2021/08/16 03:07:07;;;;;;;0.10;0.10;;;19.80;99.90;;;;;;5051330;28;20383;-75
2021/08/16 03:09:33;;;;;;;0.20;0.20;;;19.80;99.90;;;;;;5052101;28;20029;-74
2021/08/16 03:11:59;;;;;;;0.22;0.13;;;19.90;99.90;;;;;;5034322;28;20083;-75
2021/08/16 03:14:25;;;;;;;0.10;0.10;;;19.90;99.90;;;;;;5052068;28;20492;-74
2021/08/16 03:16:50;;;;;;;0.10;0.10;;;19.90;99.90;;;;;;5034260;28;20032;-74
2021/08/16 03:19:16;;;;;;;0.10;0.10;;;19.90;99.90;;;;;;5051882;28;20029;-75
2021/08/16 03:21:42;;;;;;;0.65;0.65;;;19.80;99.90;;;;;;5052126;28;20064;-74
2021/08/16 03:24:08;;;;;;;0.10;0.10;;;20.00;99.90;;;;;;5034054;28;20415;-75
2021/08/16 03:26:33;;;;;;;0.10;0.10;;;20.10;99.90;;;;;;5017634;28;20137;-74
2021/08/16 03:28:59;;;;;;;0.10;0.10;;;20.10;99.90;;;;;;5033932;28;20039;-74
2021/08/16 03:31:26;;;;;;;0.10;0.10;;;20.20;99.90;;;;;;5051969;28;20466;-75
2021/08/16 03:33:53;;;;;;;0.10;0.10;;;20.20;99.90;;;;;;5051930;28;20036;-75
2021/08/16 03:36:19;;;;;;;0.25;0.25;;;20.10;99.90;;;;;;5051841;28;20033;-74
2021/08/16 03:38:45;;;;;;;1.90;0.60;;;19.90;99.90;;;;;;5051605;28;20031;-74
2021/08/16 03:41:10;;;;;;;0.13;0.13;;;19.90;99.90;;;;;;5051740;28;20086;-74
2021/08/16 03:43:36;;;;;;;0.10;0.10;;;19.80;99.90;;;;;;5051856;28;20017;-74
2021/08/16 03:46:02;;;;;;;0.30;0.30;;;19.80;99.90;;;;;;5059842;23;20049;-76
2021/08/16 03:48:28;;;;;;;0.10;0.10;;;19.90;99.90;;;;;;4993069;28;20145;-77
2021/08/16 03:50:53;;;;;;;0.17;0.17;;;19.90;99.90;;;;;;5012242;28;20076;-77
2021/08/16 03:53:19;;;;;;;0.40;0.40;;;19.90;99.90;;;;;;5012332;28;20030;-77
2021/08/16 03:55:45;;;;;;;0.10;0.10;;;19.90;99.90;;;;;;4994580;28;20061;-77
2021/08/16 03:58:10;;;;;;;0.85;0.28;;;19.90;99.90;;;;;;4994437;28;20133;-76
2021/08/16 04:00:36;;;;;;;0.10;0.10;;;19.80;99.90;;;;;;5011939;28;20487;-77
2021/08/16 04:03:02;;;;;;;0.10;0.10;;;19.70;99.90;;;;;;5012146;28;20474;-77
2021/08/16 04:05:28;;;;;;;0.20;0.20;;;19.80;99.90;;;;;;4994479;28;20068;-77
2021/08/16 04:07:53;;;;;;;0.10;0.10;;;19.90;99.90;;;;;;4994723;28;20022;-77
2021/08/16 04:10:19;;;;;;;0.10;0.10;;;19.90;99.90;;;;;;5012015;28;20036;-77
2021/08/16 04:12:46;;;;;;;0.40;0.30;;;19.90;99.90;;;;;;4978410;28;20050;-76
2021/08/16 04:15:14;;;;;;;0.93;0.90;;;19.90;99.90;;;;;;5011952;28;20022;-76
2021/08/16 04:17:40;;;;;;;0.80;0.80;;;19.90;99.90;;;;;;5012302;28;20050;-76
2021/08/16 04:20:08;;;;;;;0.57;0.57;;;19.90;99.90;;;;;;5016294;28;20025;-77
2021/08/16 04:22:33;;;;;;;0.28;0.28;;;19.90;99.90;;;;;;4998553;28;20037;-76
2021/08/16 04:24:59;;;;;;;1.35;0.88;;;19.90;99.90;;;;;;5015644;28;20029;-77
2021/08/16 04:27:26;;;;;;;0.75;0.75;;;19.90;99.90;;;;;;4982256;28;20022;-77
2021/08/16 04:29:51;;;;;;;0.52;0.40;;;19.80;99.90;;;;;;4998488;28;20048;-76
2021/08/16 04:32:17;;;;;;;13.35;3.40;;;19.70;99.90;;;;;;4982112;28;20022;-76
2021/08/16 04:34:43;;;;;;;0.93;0.82;;;19.80;99.90;;;;;;4998308;28;20084;-76
2021/08/16 04:37:09;;;;;;;6.13;0.90;;;19.70;99.90;;;;;;4999295;28;20030;-76
2021/08/16 04:39:34;;;;;;;3.10;1.05;;;19.60;99.90;;;;;;5017579;28;20026;-77
2021/08/16 04:42:00;;;;;;;0.20;0.20;;;19.50;99.90;;;;;;5017390;28;20034;-77
2021/08/16 04:44:26;;;;;;;1.80;1.42;;;19.40;99.90;;;;;;5017097;28;20033;-77
2021/08/16 04:46:52;;;;;;;1.55;1.45;;;19.30;99.90;;;;;;5017050;28;20029;-77
2021/08/16 04:49:18;;;;;;;1.08;0.80;;;19.30;99.90;;;;;;4999151;28;20184;-77
2021/08/16 04:51:43;;;;;;;10.82;2.88;;;19.20;99.90;;;;;;5016955;28;20124;-77
2021/08/16 04:54:09;;;;;;;0.60;0.60;;;19.30;99.90;;;;;;4999895;28;20026;-77
2021/08/16 04:56:35;;;;;;;1.20;0.73;;;19.30;99.90;;;;;;5017226;28;20392;-77
2021/08/16 04:59:01;;;;;;;3.63;1.67;;;19.50;99.90;;;;;;4983292;28;20029;-77
2021/08/16 05:01:27;;;;;;;1.65;0.90;;;19.70;99.90;;;;;;4999423;28;20022;-77
2021/08/16 05:03:54;;;;;;;3.55;1.58;;;19.70;99.90;;;;;;4983553;28;20037;-77
2021/08/16 05:06:28;;;;;;;2.03;0.82;;;19.60;99.90;;;;;;5017078;28;20411;-77
2021/08/16 05:08:55;;;;;;;0.57;0.57;;;19.60;99.90;;;;;;4983193;28;20022;-77
2021/08/16 05:11:20;;;;;;;0.10;0.10;;;19.60;99.90;;;;;;4998081;28;20045;-76
2021/08/16 05:13:46;;;;;;;1.33;0.90;;;19.70;99.90;;;;;;5003976;28;20021;-76
2021/08/16 05:16:12;;;;;;;0.63;0.63;;;19.70;99.90;;;;;;5030849;28;20013;-76
2021/08/16 05:18:38;;;;;;;3.22;1.05;;;19.60;99.90;;;;;;5019012;28;20342;-77
2021/08/16 05:21:03;;;;;;;0.10;0.10;;;19.60;99.90;;;;;;4991829;28;20022;-77
2021/08/16 05:23:29;;;;;;;0.10;0.10;;;19.80;99.90;;;;;;5006189;28;20581;-77
2021/08/16 05:25:55;;;;;;;0.05;0.05;;;20.10;99.90;;;;;;5009437;28;20075;-77
2021/08/16 05:28:22;;;;;;;0.30;0.30;;;20.30;99.90;;;;;;5012498;28;20547;-76
2021/08/16 05:30:48;;;;;;;0.10;0.10;;;20.50;99.90;;;;;;5008931;28;20029;-77
2021/08/16 05:33:13;;;;;;;0.10;0.10;;;20.60;99.90;;;;;;4985923;28;20025;-77
2021/08/16 05:35:39;;;;;;;0.40;0.40;;;20.60;99.90;;;;;;5025683;28;20038;-77
2021/08/16 05:38:05;;;;;;;3.63;2.40;;;20.60;99.90;;;;;;5008429;28;20484;-77
2021/08/16 05:40:30;;;;;;;0.45;0.45;;;20.50;99.90;;;;;;5030397;28;20021;-77
2021/08/16 05:42:56;;;;;;;0.80;0.55;;;20.00;99.90;;;;;;5027837;28;20037;-77
2021/08/16 05:45:22;;;;;;;0.25;0.25;;;19.80;99.90;;;;;;5019941;28;20033;-77
2021/08/16 05:47:48;;;;;;;1.75;0.65;;;19.60;99.90;;;;;;5005150;28;20072;-76
2021/08/16 05:50:14;;;;;;;0.65;0.65;;;19.50;99.90;;;;;;5001830;28;20018;-77
2021/08/16 05:52:39;;;;;;;1.42;0.25;;;19.40;99.90;;;;;;5027682;28;20164;-76
2021/08/16 05:55:06;;;;;;;0.10;0.10;;;19.50;99.90;;;;;;4985524;28;20026;-77
2021/08/16 05:57:32;;;;;;;0.10;0.10;;;19.50;99.90;;;;;;4989842;28;20048;-76
2021/08/16 05:59:58;;;;;;;0.10;0.10;;;19.60;99.90;;;;;;5007242;28;20461;-76
2021/08/16 06:02:24;;;;;;;0.32;0.30;;;19.50;99.90;;;;;;5003178;28;20124;-77
2021/08/16 06:04:50;;;;;;;0.15;0.15;;;19.60;99.90;;;;;;5025830;28;20485;-76
2021/08/16 06:07:16;;;;;;;0.08;0.08;;;19.50;99.90;;;;;;4986102;28;20029;-76
2021/08/16 06:09:42;;;;;;;0.10;0.10;;;19.50;99.90;;;;;;5014897;28;20390;-76
2021/08/16 06:12:07;;;;;;;0.20;0.20;;;19.50;99.90;;;;;;5008577;28;20022;-76
2021/08/16 06:14:33;;;;;;;0.10;0.10;;;19.50;99.90;;;;;;5002708;28;20037;-77
2021/08/16 06:16:59;;;;;;;0.10;0.10;;;19.70;99.90;;;;;;5021443;28;20398;-77
2021/08/16 06:19:25;;;;;;;0.10;0.10;;;19.70;99.90;;;;;;5003404;28;20037;-77
2021/08/16 06:21:51;;;;;;;3.40;0.60;;;19.70;99.90;;;;;;4990893;28;20488;-77
2021/08/16 06:24:16;;;;;;;3.58;1.10;;;19.70;99.90;;;;;;5019574;28;20034;-76
2021/08/16 06:26:42;;;;;;;1.00;1.00;;;19.50;99.90;;;;;;5006513;28;20021;-76
2021/08/16 06:29:08;;;;;;;0.10;0.10;;;19.30;99.90;;;;;;5011050;28;20098;-76
2021/08/16 06:31:34;;;;;;;0.30;0.30;;;19.20;99.90;;;;;;5029258;28;20428;-76
2021/08/16 06:34:00;;;;;;;0.50;0.43;;;19.30;99.90;;;;;;5026812;28;20025;-77
2021/08/16 06:36:26;;;;;;;0.20;0.17;;;19.30;99.90;;;;;;5025397;28;20022;-76
2021/08/16 06:38:52;;;;;;;0.73;0.73;;;19.30;99.90;;;;;;5003098;28;20034;-77
2021/08/16 06:41:18;;;;;;;0.70;0.40;;;19.50;99.90;;;;;;5014089;28;20025;-77
2021/08/16 06:43:48;;;;;;;5.15;1.27;;;19.60;99.90;;;;;;4995098;28;20393;-76
2021/08/16 06:46:17;;;;;;;27.20;7.20;;;19.70;99.90;;;;;;4996137;28;20115;-77
2021/08/16 06:48:42;;;;;;;0.20;0.20;;;19.70;99.90;;;;;;5013472;28;20022;-77
2021/08/16 06:51:08;;;;;;;4.80;1.88;;;19.70;99.90;;;;;;5004171;28;20445;-76
2021/08/16 06:53:34;;;;;;;3.05;2.33;;;19.60;99.90;;;;;;5026132;28;20033;-76
2021/08/16 06:56:00;;;;;;;0.63;0.40;;;19.60;99.90;;;;;;5025771;28;20022;-76
2021/08/16 06:58:26;;;;;;;2.25;1.13;;;19.80;99.90;;;;;;5014991;28;20107;-77
2021/08/16 07:00:51;;;;;;;0.35;0.28;;;19.90;99.90;;;;;;5011125;28;20081;-77
2021/08/16 07:03:17;;;;;;;3.58;1.70;;;20.10;99.90;;;;;;5027125;28;20033;-77
2021/08/16 07:05:44;;;;;;;0.98;0.88;;;20.20;99.90;;;;;;5017613;28;20113;-77
2021/08/16 07:08:14;;;;;;;1.00;0.75;;;20.30;99.90;;;;;;5006813;28;20400;-76
2021/08/16 07:10:41;;;;;;;0.68;0.68;;;20.40;99.90;;;;;;5009777;28;20021;-76
2021/08/16 07:13:09;;;;;;;0.10;0.10;;;20.40;99.90;;;;;;5010372;28;20026;-77
2021/08/16 07:15:35;;;;;;;4.85;4.45;;;20.40;99.90;;;;;;5016796;28;20025;-77
2021/08/16 07:18:02;;;;;;;0.95;0.77;;;20.40;99.90;;;;;;4999590;28;20018;-76
2021/08/16 07:20:29;;;;;;;1.25;1.08;;;20.40;99.90;;;;;;4997050;28;20017;-76
2021/08/16 07:22:55;;;;;;;6.40;2.08;;;20.30;99.90;;;;;;4985826;28;20049;-77
2021/08/16 07:25:21;;;;;;;1.67;1.17;;;20.30;99.90;;;;;;5025526;28;20018;-76
2021/08/16 07:27:47;;;;;;;1.35;1.25;;;20.40;99.90;;;;;;5009336;28;20021;-77
2021/08/16 07:30:13;;;;;;;13.60;1.63;;;20.50;99.90;;;;;;5017708;28;20041;-76
2021/08/16 07:32:39;;;;;;;2.38;0.95;;;20.60;99.90;;;;;;5027933;28;20033;-77
2021/08/16 07:35:05;;;;;;;0.20;0.20;;;20.50;99.90;;;;;;5021150;28;20362;-76
2021/08/16 07:37:31;;;;;;;5.07;2.00;;;20.50;99.90;;;;;;4989919;28;20058;-77
2021/08/16 07:39:57;;;;;;;10.18;0.73;;;20.40;99.90;;;;;;5012618;28;20133;-77
2021/08/16 07:42:25;;;;;;;1.02;0.35;;;20.40;99.90;;;;;;5022244;28;20108;-77
2021/08/16 07:44:52;;;;;;;19.85;1.10;;;20.50;99.90;;;;;;5018120;28;20029;-77
2021/08/16 07:47:18;;;;;;;2.42;1.42;;;20.50;99.90;;;;;;5003373;28;20121;-77
2021/08/16 07:49:43;;;;;;;0.93;0.93;;;20.50;99.90;;;;;;5002764;28;20497;-77
2021/08/16 07:52:09;;;;;;;0.60;0.60;;;20.70;99.90;;;;;;5016691;28;20053;-77
2021/08/16 07:54:35;;;;;;;2.55;0.77;;;20.90;99.90;;;;;;4981519;28;20120;-80
2021/08/16 07:57:01;;;;;;;0.85;0.65;;;21.20;99.90;;;;;;5026384;28;20040;-77
2021/08/16 07:59:27;;;;;;;0.10;0.10;;;21.30;99.90;;;;;;5008332;28;20112;-77
2021/08/16 08:01:53;;;;;;;0.10;0.10;;;21.40;99.90;;;;;;5007495;28;20386;-77
2021/08/16 08:04:18;;;;;;;0.20;0.20;;;21.70;99.90;;;;;;5024899;28;20034;-77
2021/08/16 08:06:45;;;;;;;0.85;0.30;;;21.70;99.90;;;;;;4999474;28;20083;-77
2021/08/16 08:09:11;;;;;;;1.15;0.98;;;21.70;99.90;;;;;;5030032;28;20026;-77
2021/08/16 08:11:37;;;;;;;0.80;0.75;;;21.60;99.90;;;;;;5015708;28;20500;-77
2021/08/16 08:14:03;;;;;;;3.03;1.45;;;21.50;99.90;;;;;;4999938;28;20030;-77
2021/08/16 08:16:28;;;;;;;4.07;0.85;;;21.30;99.90;;;;;;5010297;28;20080;-77
2021/08/16 08:18:54;;;;;;;0.32;0.32;;;21.10;99.90;;;;;;5007741;28;20117;-76
2021/08/16 08:21:20;;;;;;;1.70;0.73;;;21.20;99.90;;;;;;4992256;28;20378;-77
2021/08/16 08:23:46;;;;;;;0.40;0.40;;;21.20;99.90;;;;;;5008890;28;20026;-77
2021/08/16 08:26:12;;;;;;;9.07;2.63;;;21.20;99.90;;;;;;5011150;28;20025;-77
2021/08/16 08:28:38;;;;;;;2.22;1.63;;;21.20;99.90;;;;;;5011788;28;20022;-77
2021/08/16 08:31:04;;;;;;;0.28;0.28;;;21.20;99.90;;;;;;5005820;28;20420;-77
2021/08/16 08:33:30;;;;;;;1.40;1.33;;;21.20;99.90;;;;;;5020570;28;20041;-77
2021/08/16 08:35:55;;;;;;;0.25;0.25;;;21.40;99.90;;;;;;5025618;28;20029;-77
2021/08/16 08:38:21;;;;;;;0.10;0.10;;;21.50;99.90;;;;;;4991819;28;20033;-77
2021/08/16 08:40:47;;;;;;;4.18;2.72;;;21.50;99.90;;;;;;5006566;28;20030;-77
2021/08/16 08:43:14;;;;;;;0.55;0.55;;;21.50;99.90;;;;;;4995717;28;20030;-77
2021/08/16 08:45:43;;;;;;;0.22;0.22;;;21.60;99.90;;;;;;4994330;28;20060;-77
2021/08/16 08:48:09;;;;;;;0.35;0.35;;;21.50;99.90;;;;;;5004670;28;20049;-77
2021/08/16 08:50:36;;;;;;;0.10;0.10;;;21.60;99.90;;;;;;5021633;28;20049;-77
2021/08/16 08:53:03;;;;;;;0.57;0.45;;;21.60;99.90;;;;;;5028890;28;20509;-77
2021/08/16 08:55:30;;;;;;;0.10;0.10;;;21.50;99.90;;;;;;4997777;28;20037;-77
2021/08/16 08:58:00;;;;;;;0.10;0.10;;;21.50;99.90;;;;;;5016710;28;20018;-77
2021/08/16 09:00:25;;;;;;;0.32;0.32;;;21.50;99.90;;;;;;5014242;28;20029;-77
2021/08/16 09:03:03;;;;;;;0.10;0.10;;;21.40;99.90;;;;;;4990543;28;20034;-77
2021/08/16 09:05:29;;;;;;;0.10;0.10;;;21.40;99.90;;;;;;5001389;28;20120;-77
2021/08/16 09:07:57;;;;;;;8.93;4.68;;;21.40;99.90;;;;;;4985604;28;20217;-76
2021/08/16 09:10:25;;;;;;;0.10;0.10;;;21.30;99.90;;;;;;5001948;28;20386;-77
2021/08/16 09:12:56;;;;;;;0.47;0.47;;;21.20;99.90;;;;;;4989214;28;20021;-76
2021/08/16 09:15:23;;;;;;;;;;;21.20;99.90;;;;;;5001950;28;20079;-77
2021/08/16 09:17:53;;;;;;;0.10;0.10;;;21.10;99.90;;;;;;5011207;28;19905;-77
2021/08/16 09:20:28;;;;;;;0.35;0.35;;;21.10;99.90;;;;;;5021905;28;20114;-77
2021/08/16 09:22:58;;;;;;;0.45;0.45;;;21.10;99.90;;;;;;5003429;28;20030;-77
2021/08/16 09:25:31;;;;;;;1.33;1.23;;;21.10;99.90;;;;;;5017219;28;20030;-77
2021/08/16 09:27:58;;;;;;;9.85;0.40;;;21.10;99.90;;;;;;4980032;28;20026;-77
2021/08/16 09:30:34;;;;;;;0.10;0.10;;;21.00;99.90;;;;;;5016037;28;20040;-77
2021/08/16 09:33:21;;;;;;;1.17;1.05;;;21.10;99.90;;;;;;4999825;28;20307;-77
2021/08/16 09:36:00;;;;;;;0.10;0.10;;;21.10;99.90;;;;;;4997932;28;20493;-76
2021/08/16 09:38:31;;;;;;;0.20;0.20;;;21.10;99.90;;;;;;5022413;28;20025;-77
2021/08/16 09:40:57;;;;;;;;;;;21.10;99.90;;;;;;4995546;28;20503;-77
2021/08/16 09:43:27;;;;;;;1.67;1.27;;;21.10;99.90;;;;;;5024998;28;19909;-77
2021/08/16 09:45:53;;;;;;;0.10;0.10;;;21.00;99.90;;;;;;5003345;28;20022;-77
2021/08/16 09:48:20;;;;;;;0.10;0.10;;;21.20;99.90;;;;;;5066347;23;20411;-74
2021/08/16 09:50:50;;;;;;;2.20;1.35;;;21.30;99.90;;;;;;5072152;28;20475;-74
2021/08/16 09:53:18;;;;;;;0.10;0.10;;;21.30;99.90;;;;;;5069993;28;20016;-74
2021/08/16 09:55:46;;;;;;;0.08;0.08;;;21.50;99.90;;;;;;5070543;28;20035;-74
2021/08/16 09:58:16;;;;;;;0.10;0.10;;;21.50;99.90;;;;;;5063992;28;20060;-75
2021/08/16 10:00:44;;;;;;;0.10;0.10;;;21.50;99.90;;;;;;5043488;28;20027;-75
2021/08/16 10:03:11;;;;;;;0.17;0.17;;;21.60;99.90;;;;;;5063416;28;20020;-75
2021/08/16 10:05:40;;;;;;;0.20;0.20;;;21.60;99.90;;;;;;5072134;28;20387;-75
2021/08/16 10:08:11;;;;;;;0.10;0.10;;;21.70;99.90;;;;;;5065259;28;20028;-75
2021/08/16 10:10:38;;;;;;;0.10;0.10;;;21.80;99.90;;;;;;5040017;28;20017;-75
2021/08/16 10:13:05;;;;;;;0.10;0.10;;;22.00;99.90;;;;;;5063058;28;20099;-75
2021/08/16 10:15:45;;;;;;;0.68;0.68;;;22.20;99.90;;;;;;5054141;28;20025;-75
2021/08/16 10:18:15;;;;;;;0.10;0.10;;;22.10;99.90;;;;;;5064983;28;20074;-75
2021/08/16 10:20:44;;;;;;;0.10;0.10;;;22.20;99.90;;;;;;5059157;28;20036;-75
2021/08/16 10:23:20;;;;;;;0.10;0.10;;;22.00;99.90;;;;;;5061826;28;20020;-75
2021/08/16 10:25:48;;;;;;;0.35;0.35;;;22.00;99.90;;;;;;5071727;28;20021;-75
2021/08/16 10:28:32;;;;;;;1.00;0.40;;;22.20;99.90;;;;;;5071147;28;20032;-75
2021/08/16 10:31:00;;;;;;;0.10;0.10;;;22.10;99.90;;;;;;5063201;28;20164;-75
2021/08/16 10:33:26;;;;;;;0.00;0.00;;;22.20;99.90;;;;;;5069295;28;20024;-75
2021/08/16 10:35:53;;;;;;;0.15;0.15;;;22.30;99.90;;;;;;5071364;28;20434;-75
2021/08/16 10:38:20;;;;;;;1.88;0.52;;;22.50;99.90;;;;;;5064515;28;20025;-75
2021/08/16 10:40:52;;;;;;;0.20;0.20;;;22.50;99.90;;;;;;5062018;28;20392;-75
2021/08/16 10:43:19;;;;;;;0.52;0.52;;;22.60;99.90;;;;;;5071042;28;20024;-75
2021/08/16 10:45:52;;;;;;;0.57;0.40;;;22.50;99.90;;;;;;5071418;28;20033;-75
2021/08/16 10:48:25;;;;;;;0.10;0.10;;;22.60;99.90;;;;;;5053796;28;20028;-75
2021/08/16 10:51:11;;;;;;;0.28;0.28;;;22.70;99.90;;;;;;5060353;28;20480;-75
2021/08/16 10:53:51;;;;;;;0.20;0.20;;;22.90;99.90;;;;;;5070734;28;20483;-75
2021/08/16 10:56:22;;;;;;;1.08;0.73;;;23.00;99.90;;;;;;5071328;28;20111;-75
2021/08/16 10:58:49;;;;;;;0.20;0.20;;;23.00;99.90;;;;;;5066886;28;20434;-75
2021/08/16 11:01:34;;;;;;;2.00;1.83;;;23.10;99.90;;;;;;5071001;28;20115;-75
2021/08/16 11:04:03;;;;;;;0.28;0.28;;;23.00;99.90;;;;;;5065974;28;20028;-75
2021/08/16 11:06:30;;;;;;;0.98;0.57;;;22.90;99.90;;;;;;5069789;28;20021;-75
2021/08/16 11:09:01;;;;;;;0.10;0.10;;;22.80;99.90;;;;;;5068778;28;20079;-75
2021/08/16 11:11:29;;;;;;;0.10;0.10;;;22.60;99.90;;;;;;5063692;28;20028;-75
2021/08/16 11:14:09;;;;;;;0.55;0.55;;;22.60;99.90;;;;;;5065108;28;20036;-75
2021/08/16 11:16:47;;;;;;;0.20;0.20;;;22.80;99.90;;;;;;5070949;28;20112;-76
2021/08/16 11:19:13;;;;;;;0.10;0.10;;;22.90;99.90;;;;;;5056419;28;20032;-75
2021/08/16 11:21:39;;;;;;;0.10;0.10;;;23.40;99.90;;;;;;5071028;28;20510;-75
2021/08/16 11:24:05;;;;;;;0.08;0.08;;;23.70;99.90;;;;;;5070475;28;20111;-76
2021/08/16 11:26:31;;;;;;;0.20;0.20;;;23.90;99.90;;;;;;5070887;28;20029;-75
2021/08/16 11:29:04;;;;;;;0.22;0.22;;;23.90;99.90;;;;;;5044512;28;20045;-75
2021/08/16 11:31:31;;;;;;;0.75;0.52;;;24.10;99.90;;;;;;5066733;28;20054;-75
2021/08/16 11:34:04;;;;;;;0.28;0.28;;;23.80;99.90;;;;;;5070280;28;20519;-75
2021/08/16 11:36:35;;;;;;;0.20;0.20;;;23.70;99.90;;;;;;5070906;28;20388;-75
2021/08/16 11:39:02;;;;;;;0.20;0.20;;;23.50;99.90;;;;;;5057788;28;20115;-75
2021/08/16 11:41:32;;;;;;;0.10;0.10;;;23.10;99.90;;;;;;5070550;28;20388;-75
2021/08/16 11:44:13;;;;;;;1.50;0.83;;;22.80;99.90;;;;;;5070366;28;20095;-75
2021/08/16 11:46:38;;;;;;;0.57;0.38;;;22.70;99.90;;;;;;5066202;28;20391;-75
2021/08/16 11:49:10;;;;;;;0.10;0.10;;;22.70;99.90;;;;;;5070134;28;20032;-75
2021/08/16 11:51:36;;;;;;;0.52;0.45;;;22.40;99.90;;;;;;5070747;28;20537;-75
2021/08/16 11:54:02;;;;;;;0.70;0.70;;;22.40;99.90;;;;;;5041504;28;20053;-75
2021/08/16 11:56:28;;;;;;;0.10;0.10;;;22.40;99.90;;;;;;5045717;28;20063;-74
2021/08/16 11:58:54;;;;;;;0.00;0.00;;;22.40;99.90;;;;;;5059544;28;20479;-75
2021/08/16 12:01:20;;;;;;;0.10;0.10;;;22.40;99.90;;;;;;5070677;28;20057;-75
2021/08/16 12:03:46;;;;;;;0.10;0.10;;;22.30;99.90;;;;;;5047718;28;20024;-75
2021/08/16 12:06:16;;;;;;;0.10;0.10;;;22.20;99.90;;;;;;5048083;28;20036;-75
2021/08/16 12:08:42;;;;;;;0.10;0.10;;;22.20;99.90;;;;;;5050583;28;20016;-75
2021/08/16 12:11:17;;;;;;;0.30;0.30;;;22.10;99.90;;;;;;5059315;28;20379;-75
2021/08/16 12:13:42;;;;;;;1.92;1.13;;;22.00;99.90;;;;;;5057626;28;20028;-75
2021/08/16 12:16:14;;;;;;;0.10;0.10;;;21.80;99.90;;;;;;5044094;28;20029;-74
2021/08/16 12:18:39;;;;;;;0.20;0.20;;;21.90;99.90;;;;;;5071273;28;20101;-75
2021/08/16 12:21:05;;;;;;;0.65;0.65;;;22.00;99.90;;;;;;5055363;28;20487;-75
2021/08/16 12:23:34;;;;;;;0.20;0.20;;;22.00;99.90;;;;;;5070160;28;20116;-75
2021/08/16 12:26:03;;;;;;;1.25;0.73;;;21.80;99.90;;;;;;5042576;28;20029;-75
2021/08/16 12:28:55;;;;;;;0.10;0.10;;;21.50;99.90;;;;;;5063323;28;20025;-75
2021/08/16 12:31:27;;;;;;;2.10;0.95;;;21.60;99.90;;;;;;5056134;28;20447;-75
2021/08/16 12:34:00;;;;;;;0.20;0.20;;;21.60;99.90;;;;;;5069492;28;20122;-74
2021/08/16 12:36:37;;;;;;;1.15;1.05;;;21.40;99.90;;;;;;5070436;28;20100;-75
2021/08/16 12:39:08;;;;;;;0.57;0.57;;;21.20;99.90;;;;;;5070334;28;20380;-75
2021/08/16 12:41:34;;;;;;;2.10;0.75;;;21.10;99.90;;;;;;5070181;28;20025;-75
2021/08/16 12:44:00;;;;;;;0.40;0.30;;;21.00;99.90;;;;;;5073425;28;20053;-75
2021/08/16 12:46:32;;;;;;;7.22;1.35;;;21.00;99.90;;;;;;5073954;28;20047;-75
2021/08/16 12:48:58;;;;;;;0.05;0.05;;;21.00;99.90;;;;;;5067032;28;20118;-74